Time;durP1;ratioP1;P1;durP2;ratioP2;P2;SDS_P1;SDS_P2;PMS_P1;PMS_P2;Temp;Humidity;BMP_temperature;BMP_pressure;BME280_temperature;BME280_humidity;BME280_pressure;Samples;Min_cycle;Max_cycle;Signal;HPM_P1;HPM_P2
2022/01/28 00:01:45;;;;;;;;;;;;;;;26.75;16.43;101103.84;5055617;28;834;-41
2022/01/28 00:04:15;;;;;;;;;;;;;;;26.65;16.60;101102.19;5055268;28;796;-41
2022/01/28 00:06:40;;;;;;;;;;;;;;;26.62;16.88;101101.69;5048031;28;762;-40
2022/01/28 00:09:06;;;;;;;;;;;;;;;26.71;16.92;101095.25;5055921;28;796;-40
2022/01/28 00:11:31;;;;;;;;;;;;;;;26.64;16.68;101095.09;5055352;28;921;-40
2022/01/28 00:14:11;;;;;;;;;;;;;;;26.66;16.79;101092.22;5055567;28;801;-40
2022/01/28 00:38:09;;;;;;;;;;;;;;;26.65;16.96;101066.25;5039500;28;1913;-39
2022/01/28 00:40:35;;;;;;;;;;;;;;;26.71;16.75;101062.88;5058758;28;751;-38
2022/01/28 00:43:00;;;;;;;;;;;;;;;26.76;16.79;101060.50;5058745;28;813;-40
2022/01/28 00:45:26;;;;;;;;;;;;;;;26.75;16.78;101056.13;5043722;28;821;-40
2022/01/28 00:47:51;;;;;;;;;;;;;;;27.31;16.34;101053.56;5039545;28;711;-39
2022/01/28 00:50:16;;;;;;;;;;;;;;;27.06;16.26;101054.50;5039696;28;802;-39
2022/01/28 00:52:42;;;;;;;;;;;;;;;26.81;16.70;101053.75;5039265;28;852;-40
2022/01/28 00:55:07;;;;;;;;;;;;;;;26.77;16.72;101048.69;5039009;28;998;-41
2022/01/28 00:57:33;;;;;;;;;;;;;;;26.73;16.79;101047.34;5039256;28;1959;-39
2022/01/28 00:59:59;;;;;;;;;;;;;;;26.75;16.67;101050.72;5038837;28;924;-41
2022/01/28 01:02:24;;;;;;;;;;;;;;;26.74;16.85;101045.50;5039070;28;909;-40
2022/01/28 01:04:49;;;;;;;;;;;;;;;26.67;16.80;101039.09;5039284;28;861;-39
2022/01/28 01:07:15;;;;;;;;;;;;;;;26.63;17.23;101031.34;5039284;28;821;-39
2022/01/28 01:09:40;;;;;;;;;;;;;;;26.65;16.90;101025.78;5038988;28;755;-40
2022/01/28 01:12:05;;;;;;;;;;;;;;;26.73;16.85;101019.50;5038826;28;850;-39
2022/01/28 01:14:31;;;;;;;;;;;;;;;26.69;16.97;101020.91;5038505;28;1379;-39
2022/01/28 01:19:44;;;;;;;;;;;;;;;26.66;16.90;101003.19;5035379;28;1425;-40
2022/01/28 01:22:11;;;;;;;;;;;;;;;26.71;16.92;101003.50;5058378;28;822;-39
2022/01/28 01:24:47;;;;;;;;;;;;;;;26.69;16.96;101000.16;5057621;28;778;-39
2022/01/28 01:27:13;;;;;;;;;;;;;;;26.65;17.31;101004.19;5055791;28;837;-39
2022/01/28 01:29:42;;;;;;;;;;;;;;;26.74;16.71;100992.34;5057920;28;884;-41
2022/01/28 01:32:13;;;;;;;;;;;;;;;27.39;16.27;100989.50;5057867;28;795;-40
2022/01/28 01:34:38;;;;;;;;;;;;;;;26.92;16.54;100982.34;5058252;28;790;-40
2022/01/28 01:37:03;;;;;;;;;;;;;;;26.71;16.74;100984.59;5057614;28;1909;-39
2022/01/28 01:39:33;;;;;;;;;;;;;;;26.68;16.96;100987.66;5057157;28;866;-41
2022/01/28 01:42:07;;;;;;;;;;;;;;;26.72;17.00;100983.63;5057821;28;818;-39
2022/01/28 01:52:19;;;;;;;;;;;;;;;26.74;16.95;100961.84;5057229;28;837;-41
2022/01/28 01:54:44;;;;;;;;;;;;;;;26.66;16.78;100968.09;5057217;28;962;-41
2022/01/28 01:57:10;;;;;;;;;;;;;;;26.77;17.19;100972.28;5057765;28;1969;-40
2022/01/28 01:59:36;;;;;;;;;;;;;;;26.73;17.12;100961.00;5057189;28;1954;-40
2022/01/28 02:02:02;;;;;;;;;;;;;;;26.67;17.05;100952.75;5057324;28;841;-39
2022/01/28 02:04:27;;;;;;;;;;;;;;;26.62;17.34;100961.38;5056631;28;817;-39
2022/01/28 02:06:52;;;;;;;;;;;;;;;26.67;17.12;100958.16;5057098;28;881;-39
2022/01/28 02:09:18;;;;;;;;;;;;;;;26.64;17.10;100959.34;5056893;28;816;-39
2022/01/28 02:11:43;;;;;;;;;;;;;;;26.72;17.15;100948.53;5039274;28;845;-38
2022/01/28 02:14:08;;;;;;;;;;;;;;;26.68;16.96;100940.94;5050540;28;868;-40
2022/01/28 02:16:34;;;;;;;;;;;;;;;26.69;17.06;100943.50;5056291;28;837;-40
2022/01/28 02:18:59;;;;;;;;;;;;;;;26.61;17.20;100938.94;5057537;28;1965;-39
2022/01/28 02:21:24;;;;;;;;;;;;;;;26.65;16.97;100943.00;5056606;28;1342;-40
2022/01/28 02:23:55;;;;;;;;;;;;;;;26.70;17.17;100941.59;5056863;28;738;-40
2022/01/28 02:26:21;;;;;;;;;;;;;;;26.70;16.94;100947.84;5057416;28;936;-40
2022/01/28 02:28:50;;;;;;;;;;;;;;;26.68;16.97;100938.25;5056852;28;809;-40
2022/01/28 02:31:20;;;;;;;;;;;;;;;27.38;16.78;100933.81;5056478;28;854;-39
2022/01/28 02:33:46;;;;;;;;;;;;;;;26.90;16.59;100932.06;5056992;28;774;-40
2022/01/28 02:36:12;;;;;;;;;;;;;;;26.68;17.13;100935.53;5055505;28;1410;-39
2022/01/28 02:38:37;;;;;;;;;;;;;;;26.84;17.01;100934.63;5055558;28;1961;-39
2022/01/28 02:41:04;;;;;;;;;;;;;;;26.71;16.73;100930.63;5056580;28;845;-40
2022/01/28 02:46:02;;;;;;;;;;;;;;;26.69;16.97;100926.44;5056047;28;1090;-39
2022/01/28 02:48:29;;;;;;;;;;;;;;;26.68;16.96;100916.66;5056172;28;873;-39
2022/01/28 02:53:28;;;;;;;;;;;;;;;26.73;17.27;100909.72;5055525;28;764;-40
2022/01/28 02:56:03;;;;;;;;;;;;;;;26.75;16.88;100905.00;5055487;28;997;-38
2022/01/28 02:58:28;;;;;;;;;;;;;;;26.73;17.07;100906.16;5056503;28;1890;-38
2022/01/28 03:00:57;;;;;;;;;;;;;;;26.69;16.96;100903.00;5056226;28;848;-39
2022/01/28 03:03:25;;;;;;;;;;;;;;;26.59;17.37;100896.97;5056366;28;967;-40
2022/01/28 03:05:50;;;;;;;;;;;;;;;27.21;16.71;100899.84;5056484;28;806;-39
2022/01/28 03:08:16;;;;;;;;;;;;;;;26.73;17.07;100893.53;5055559;28;774;-41
2022/01/28 03:10:47;;;;;;;;;;;;;;;26.70;16.78;100885.78;5055946;28;785;-40
2022/01/28 03:13:17;;;;;;;;;;;;;;;26.74;17.18;100889.81;5056464;28;802;-41
2022/01/28 03:15:50;;;;;;;;;;;;;;;26.71;17.02;100892.84;5053029;28;959;-41
2022/01/28 03:18:20;;;;;;;;;;;;;;;26.71;16.84;100895.56;5055931;28;1901;-41
2022/01/28 03:23:17;;;;;;;;;;;;;;;27.32;16.46;100894.03;5055636;28;687;-39
2022/01/28 03:25:44;;;;;;;;;;;;;;;26.94;16.64;100897.47;5055602;28;809;-39
2022/01/28 03:28:09;;;;;;;;;;;;;;;26.80;16.90;100893.66;5056140;28;854;-39
2022/01/28 03:30:35;;;;;;;;;;;;;;;26.89;16.79;100897.97;5055246;28;1172;-39
2022/01/28 03:33:00;;;;;;;;;;;;;;;26.81;16.94;100892.63;5055804;28;790;-39
2022/01/28 03:35:25;;;;;;;;;;;;;;;26.84;16.65;100902.25;5056049;28;754;-40
2022/01/28 03:37:59;;;;;;;;;;;;;;;26.74;16.68;100895.19;5055531;28;1905;-39
2022/01/28 03:40:25;;;;;;;;;;;;;;;26.78;16.72;100890.28;5055948;28;857;-40
2022/01/28 03:42:50;;;;;;;;;;;;;;;26.77;17.00;100891.31;5055817;28;805;-39
2022/01/28 03:45:15;;;;;;;;;;;;;;;26.79;16.96;100886.59;5054737;28;976;-39
2022/01/28 03:47:41;;;;;;;;;;;;;;;26.73;17.09;100877.34;5055697;28;772;-41
2022/01/28 03:50:06;;;;;;;;;;;;;;;26.64;16.98;100868.44;5055385;28;763;-39
2022/01/28 03:52:31;;;;;;;;;;;;;;;26.68;17.03;100862.69;5055110;28;810;-39
2022/01/28 03:54:57;;;;;;;;;;;;;;;26.72;16.74;100861.31;5055826;28;986;-41
2022/01/28 03:57:22;;;;;;;;;;;;;;;26.73;16.92;100847.66;5055139;28;1897;-39
2022/01/28 03:59:47;;;;;;;;;;;;;;;26.72;16.78;100847.84;5054706;28;885;-40
2022/01/28 04:02:13;;;;;;;;;;;;;;;26.86;16.74;100851.63;5059937;28;1152;-39
2022/01/28 04:12:40;;;;;;;;;;;;;;;26.73;16.39;100852.19;5055130;28;798;-41
2022/01/28 04:17:33;;;;;;;;;;;;;;;25.10;12.75;100853.06;5055513;28;1893;-41
2022/01/28 04:19:59;;;;;;;;;;;;;;;25.31;12.68;100845.31;5055269;28;1152;-42
2022/01/28 04:22:25;;;;;;;;;;;;;;;24.79;12.46;100843.75;5055131;28;901;-41
2022/01/28 04:24:50;;;;;;;;;;;;;;;23.86;12.95;100844.31;5054645;28;857;-40
2022/01/28 04:27:15;;;;;;;;;;;;;;;23.73;13.27;100826.81;5055393;28;774;-39
2022/01/28 04:29:41;;;;;;;;;;;;;;;23.57;13.54;100832.06;5054707;28;876;-38
2022/01/28 04:32:07;;;;;;;;;;;;;;;23.17;13.45;100826.19;5055345;28;869;-37
2022/01/28 04:34:32;;;;;;;;;;;;;;;23.01;13.43;100830.41;5055387;28;746;-40
2022/01/28 04:39:38;;;;;;;;;;;;;;;22.41;12.82;100824.53;5055119;28;729;-41
2022/01/28 04:42:18;;;;;;;;;;;;;;;22.06;13.46;100828.78;5055359;28;822;-40
2022/01/28 04:47:22;;;;;;;;;;;;;;;21.34;13.56;100830.88;5054883;28;731;-39
2022/01/28 05:13:38;;;;;;;;;;;;;;;23.97;14.07;100822.56;5057858;28;787;-37
2022/01/28 05:16:26;;;;;;;;;;;;;;;24.22;13.88;100821.88;5052640;28;1604;-39
2022/01/28 05:26:59;;;;;;;;;;;;;;;25.58;15.12;100825.44;5038268;28;798;-38
2022/01/28 05:29:25;;;;;;;;;;;;;;;25.68;15.16;100826.97;5037869;28;940;-41
2022/01/28 05:31:50;;;;;;;;;;;;;;;25.80;15.37;100829.31;5036690;28;1474;-38
2022/01/28 05:34:15;;;;;;;;;;;;;;;25.95;15.21;100823.19;5037181;28;1368;-39
2022/01/28 05:36:41;;;;;;;;;;;;;;;26.04;15.46;100827.56;5034224;28;1245;-40
2022/01/28 05:39:06;;;;;;;;;;;;;;;26.44;14.86;100824.06;5035478;28;1977;-39
2022/01/28 05:41:32;;;;;;;;;;;;;;;26.73;14.84;100836.00;5037309;28;1221;-40
2022/01/28 05:43:57;;;;;;;;;;;;;;;26.92;15.04;100828.47;5037118;28;1356;-39
2022/01/28 05:46:22;;;;;;;;;;;;;;;27.14;15.04;100826.84;5037740;28;1321;-39
2022/01/28 05:48:47;;;;;;;;;;;;;;;27.31;14.61;100829.38;5037144;28;1158;-38
2022/01/28 05:51:13;;;;;;;;;;;;;;;27.46;14.97;100826.72;5036548;28;1412;-38
2022/01/28 05:53:38;;;;;;;;;;;;;;;27.54;14.80;100823.94;5037665;28;943;-40
2022/01/28 05:56:03;;;;;;;;;;;;;;;27.66;15.04;100826.19;5036631;28;1198;-39
2022/01/28 05:58:29;;;;;;;;;;;;;;;27.81;14.83;100834.34;5037899;28;1902;-39
2022/01/28 06:00:54;;;;;;;;;;;;;;;27.90;14.85;100830.50;5037620;28;980;-41
2022/01/28 06:03:19;;;;;;;;;;;;;;;26.29;14.63;100825.59;5038126;28;844;-41
2022/01/28 06:05:47;;;;;;;;;;;;;;;25.99;15.52;100825.38;5037348;28;819;-38
2022/01/28 06:08:12;;;;;;;;;;;;;;;27.22;14.95;100818.66;5037311;28;1046;-40
2022/01/28 06:10:37;;;;;;;;;;;;;;;27.59;14.63;100820.69;5037797;28;813;-37
2022/01/28 06:13:05;;;;;;;;;;;;;;;27.89;14.58;100822.59;5035987;28;1538;-39
2022/01/28 06:15:30;;;;;;;;;;;;;;;28.04;14.61;100815.31;5037276;28;829;-37
2022/01/28 06:17:55;;;;;;;;;;;;;;;28.15;14.52;100823.97;5034031;28;1906;-41
2022/01/28 06:20:21;;;;;;;;;;;;;;;28.28;14.55;100829.53;5047123;28;1148;-41
2022/01/28 06:22:47;;;;;;;;;;;;;;;27.82;15.42;100817.94;5057279;28;849;-39
2022/01/28 06:25:15;;;;;;;;;;;;;;;27.51;15.53;100813.47;5057209;28;837;-38
2022/01/28 06:27:41;;;;;;;;;;;;;;;27.51;15.82;100810.78;5056792;28;901;-41
2022/01/28 06:30:06;;;;;;;;;;;;;;;27.12;16.02;100813.50;5056906;28;985;-40
2022/01/28 06:32:32;;;;;;;;;;;;;;;26.73;16.41;100809.88;5056962;28;797;-38
2022/01/28 06:34:58;;;;;;;;;;;;;;;27.30;15.96;100817.75;5057320;28;742;-37
2022/01/28 06:37:23;;;;;;;;;;;;;;;28.24;14.63;100809.31;5054968;28;1906;-38
2022/01/28 06:39:48;;;;;;;;;;;;;;;27.65;15.53;100805.56;5056688;28;1694;-39
2022/01/28 06:42:13;;;;;;;;;;;;;;;26.45;17.40;100813.09;5055181;28;1390;-42
2022/01/28 06:44:39;;;;;;;;;;;;;;;26.33;17.52;100811.78;5056205;28;1102;-40
2022/01/28 06:47:04;;;;;;;;;;;;;;;27.96;16.10;100818.94;5054521;28;1303;-41
2022/01/28 06:49:31;;;;;;;;;;;;;;;28.54;15.47;100817.41;5056528;28;1529;-40
2022/01/28 06:51:56;;;;;;;;;;;;;;;28.64;15.18;100813.53;5059289;28;1572;-41
2022/01/28 06:54:22;;;;;;;;;;;;;;;28.66;15.24;100806.06;5055734;28;1336;-40
2022/01/28 06:56:47;;;;;;;;;;;;;;;28.72;15.25;100813.41;5054773;28;1545;-41
2022/01/28 06:59:12;;;;;;;;;;;;;;;29.05;14.94;100807.50;5054732;28;1902;-41
2022/01/28 07:01:37;;;;;;;;;;;;;;;27.95;16.38;100806.47;5055632;28;1395;-40
2022/01/28 07:04:03;;;;;;;;;;;;;;;27.80;16.34;100803.75;5056244;28;872;-39
2022/01/28 07:06:28;;;;;;;;;;;;;;;27.91;16.71;100805.13;5038956;28;1522;-41
2022/01/28 07:08:54;;;;;;;;;;;;;;;28.04;16.49;100812.63;5055653;28;1402;-41
2022/01/28 07:11:19;;;;;;;;;;;;;;;28.02;16.45;100805.69;5060071;28;1189;-42
2022/01/28 07:13:45;;;;;;;;;;;;;;;27.94;16.79;100809.34;5055293;28;1673;-41
2022/01/28 07:16:10;;;;;;;;;;;;;;;27.81;16.54;100805.44;5055977;28;896;-41
2022/01/28 07:18:35;;;;;;;;;;;;;;;27.91;16.71;100804.31;5056272;28;1894;-40
2022/01/28 07:21:00;;;;;;;;;;;;;;;28.01;16.36;100801.34;5056295;28;1073;-37
2022/01/28 07:23:26;;;;;;;;;;;;;;;27.99;16.80;100794.22;5055593;28;1355;-38
2022/01/28 07:25:51;;;;;;;;;;;;;;;27.48;16.32;100787.69;5052894;28;1259;-36
2022/01/28 07:28:16;;;;;;;;;;;;;;;27.22;17.11;100801.59;5054461;28;1409;-40
2022/01/28 07:30:42;;;;;;;;;;;;;;;27.38;17.08;100793.34;5055518;28;1473;-38
2022/01/28 07:33:09;;;;;;;;;;;;;;;27.43;17.13;100800.91;5054606;28;1485;-39
2022/01/28 07:35:35;;;;;;;;;;;;;;;29.13;15.61;100800.28;5053789;28;1515;-40
2022/01/28 07:38:00;;;;;;;;;;;;;;;29.33;15.37;100800.41;5054404;28;2228;-40
2022/01/28 07:40:25;;;;;;;;;;;;;;;29.40;15.12;100795.91;5052320;28;1549;-37
2022/01/28 07:42:51;;;;;;;;;;;;;;;27.75;16.62;100782.69;5052806;28;1374;-38
2022/01/28 07:45:16;;;;;;;;;;;;;;;27.46;17.47;100778.91;5053034;28;1299;-38
2022/01/28 07:47:42;;;;;;;;;;;;;;;27.33;17.64;100778.72;5052370;28;1179;-37
2022/01/28 07:50:07;;;;;;;;;;;;;;;27.33;17.82;100779.56;5053360;28;1367;-38
2022/01/28 07:52:33;;;;;;;;;;;;;;;27.38;17.67;100771.75;5053769;28;1518;-38
2022/01/28 07:54:58;;;;;;;;;;;;;;;27.37;17.42;100770.06;5054763;28;1233;-41
2022/01/28 07:57:23;;;;;;;;;;;;;;;27.41;17.30;100769.69;5053608;28;1890;-38
2022/01/28 07:59:49;;;;;;;;;;;;;;;27.26;17.85;100762.41;5054401;28;1196;-38
2022/01/28 08:02:15;;;;;;;;;;;;;;;27.33;17.56;100760.66;5054941;28;1545;-38
2022/01/28 08:04:40;;;;;;;;;;;;;;;27.14;18.06;100768.25;5054496;28;1288;-41
2022/01/28 08:07:05;;;;;;;;;;;;;;;27.19;17.87;100767.72;5054048;28;1281;-41
2022/01/28 08:09:31;;;;;;;;;;;;;;;27.13;17.62;100763.88;5054981;28;1505;-37
2022/01/28 08:11:56;;;;;;;;;;;;;;;27.06;17.53;100762.91;5053363;28;1303;-39
2022/01/28 08:14:21;;;;;;;;;;;;;;;27.32;17.78;100764.38;5053100;28;1521;-39
2022/01/28 08:16:46;;;;;;;;;;;;;;;27.48;17.45;100776.88;5053675;28;1393;-41
2022/01/28 08:19:12;;;;;;;;;;;;;;;27.63;17.33;100776.03;5053388;28;1901;-39
2022/01/28 08:21:37;;;;;;;;;;;;;;;27.75;17.39;100769.19;5035090;28;1431;-40
2022/01/28 08:24:02;;;;;;;;;;;;;;;28.65;16.55;100774.59;5040506;28;1387;-41
2022/01/28 08:26:28;;;;;;;;;;;;;;;28.72;16.51;100772.81;5042421;28;1340;-39
2022/01/28 08:28:53;;;;;;;;;;;;;;;27.43;17.49;100778.44;5040544;28;1283;-41
2022/01/28 08:31:19;;;;;;;;;;;;;;;27.24;17.90;100778.78;5037909;28;1528;-41
2022/01/28 08:33:44;;;;;;;;;;;;;;;27.07;18.25;100771.88;5035685;28;778;-41
2022/01/28 08:36:09;;;;;;;;;;;;;;;26.98;18.41;100762.97;5042755;28;1407;-40
2022/01/28 08:38:38;;;;;;;;;;;;;;;26.97;18.08;100764.84;5042738;28;1902;-41
2022/01/28 08:41:04;;;;;;;;;;;;;;;26.83;18.47;100758.34;5042621;28;1429;-41
2022/01/28 08:43:29;;;;;;;;;;;;;;;26.72;18.65;100759.63;5039295;28;1392;-41
2022/01/28 08:45:54;;;;;;;;;;;;;;;26.64;18.40;100759.69;5040783;28;1593;-41
2022/01/28 08:48:20;;;;;;;;;;;;;;;28.01;17.21;100756.19;5041811;28;1479;-40
2022/01/28 08:50:45;;;;;;;;;;;;;;;28.71;16.49;100766.53;5038016;28;1601;-38
2022/01/28 08:53:11;;;;;;;;;;;;;;;28.99;16.48;100769.53;5039337;28;1201;-38
2022/01/28 08:55:38;;;;;;;;;;;;;;;28.96;16.38;100773.44;5039754;28;1197;-40
2022/01/28 08:58:03;;;;;;;;;;;;;;;29.18;15.96;100771.56;5035919;28;1972;-40
2022/01/28 09:00:28;;;;;;;;;;;;;;;29.20;16.13;100769.50;5042020;28;1371;-40
2022/01/28 09:02:54;;;;;;;;;;;;;;;29.33;15.99;100768.75;5044609;28;1254;-41
2022/01/28 09:05:19;;;;;;;;;;;;;;;29.54;15.83;100772.44;5042906;28;1483;-41
2022/01/28 09:07:44;;;;;;;;;;;;;;;29.82;15.75;100765.31;5038331;28;1308;-40
2022/01/28 09:10:13;;;;;;;;;;;;;;;29.82;15.90;100765.31;5044401;28;1123;-42
2022/01/28 09:12:46;;;;;;;;;;;;;;;29.73;15.71;100761.09;5047123;28;1276;-40
2022/01/28 09:15:11;;;;;;;;;;;;;;;29.99;15.51;100751.41;5042937;28;1248;-39
2022/01/28 09:17:37;;;;;;;;;;;;;;;29.98;15.75;100738.91;5021553;28;1902;-38
2022/01/28 09:20:02;;;;;;;;;;;;;;;30.18;15.45;100741.66;5042879;28;1546;-39
2022/01/28 09:22:28;;;;;;;;;;;;;;;29.98;15.72;100739.72;5039696;28;1569;-38
2022/01/28 09:24:53;;;;;;;;;;;;;;;30.02;15.49;100738.28;5036951;28;1162;-39
2022/01/28 09:27:18;;;;;;;;;;;;;;;29.87;15.61;100737.59;5038931;28;1422;-40
2022/01/28 09:29:44;;;;;;;;;;;;;;;30.15;15.29;100742.91;5038978;28;1349;-40
2022/01/28 09:32:09;;;;;;;;;;;;;;;29.98;15.34;100742.44;5040111;28;1411;-41
2022/01/28 09:34:34;;;;;;;;;;;;;;;30.23;15.23;100730.25;5037950;28;1484;-41
2022/01/28 09:36:59;;;;;;;;;;;;;;;30.26;15.11;100732.53;5037781;28;1969;-40
2022/01/28 09:39:25;;;;;;;;;;;;;;;30.19;14.93;100727.06;5038103;28;1368;-41
2022/01/28 09:41:52;;;;;;;;;;;;;;;30.40;14.67;100726.09;5032633;28;1403;-39
2022/01/28 09:44:18;;;;;;;;;;;;;;;30.42;14.73;100712.31;5045080;28;1454;-40
2022/01/28 09:46:43;;;;;;;;;;;;;;;30.38;14.72;100708.34;5044022;28;1170;-40
2022/01/28 09:49:08;;;;;;;;;;;;;;;30.41;14.71;100702.50;5021554;28;1473;-40
2022/01/28 09:51:33;;;;;;;;;;;;;;;30.37;14.88;100702.09;5016094;28;1311;-40
2022/01/28 09:53:59;;;;;;;;;;;;;;;30.46;14.54;100688.31;5036903;28;1192;-40
2022/01/28 09:56:24;;;;;;;;;;;;;;;30.28;14.19;100687.88;5019709;28;1332;-41
2022/01/28 09:58:49;;;;;;;;;;;;;;;30.19;14.16;100660.09;5036697;28;1910;-40
2022/01/28 10:01:15;;;;;;;;;;;;;;;30.28;13.98;100668.88;5028955;28;1430;-41
2022/01/28 10:03:40;;;;;;;;;;;;;;;30.41;13.37;100667.22;5039815;28;1379;-41
2022/01/28 10:06:05;;;;;;;;;;;;;;;30.30;13.33;100653.22;5037515;28;1188;-41
2022/01/28 10:08:32;;;;;;;;;;;;;;;30.12;15.01;100647.53;5040903;28;1417;-41
2022/01/28 10:11:03;;;;;;;;;;;;;;;30.14;16.35;100651.72;5040265;28;1480;-41
2022/01/28 10:13:37;;;;;;;;;;;;;;;30.22;16.61;100658.00;5040316;28;1362;-41
2022/01/28 10:16:02;;;;;;;;;;;;;;;30.24;16.00;100658.66;5036119;28;1375;-40
2022/01/28 10:18:37;;;;;;;;;;;;;;;30.18;16.00;100660.25;5034957;28;1956;-41
2022/01/28 10:21:03;;;;;;;;;;;;;;;30.24;16.16;100667.63;5051764;28;1286;-41
2022/01/28 10:23:28;;;;;;;;;;;;;;;30.24;16.23;100659.50;5037063;28;1260;-41
2022/01/28 10:26:00;;;;;;;;;;;;;;;30.35;16.17;100665.31;5054902;28;1258;-42
2022/01/28 10:28:25;;;;;;;;;;;;;;;30.02;16.31;100656.91;5056196;28;1198;-41
2022/01/28 10:30:50;;;;;;;;;;;;;;;30.17;16.02;100647.75;5056933;28;1364;-42
2022/01/28 10:33:17;;;;;;;;;;;;;;;30.06;16.06;100646.50;5060538;28;1211;-41
2022/01/28 10:35:52;;;;;;;;;;;;;;;30.42;15.83;100661.59;5055820;28;1259;-41
2022/01/28 10:38:33;;;;;;;;;;;;;;;30.23;15.95;100652.38;5056179;28;1965;-39
2022/01/28 10:41:25;;;;;;;;;;;;;;;30.25;15.94;100646.75;5055716;28;1363;-39
2022/01/28 10:43:53;;;;;;;;;;;;;;;30.54;15.25;100650.94;5051701;28;1582;-41
2022/01/28 10:46:22;;;;;;;;;;;;;;;30.68;15.17;100643.63;5054736;28;1273;-41
2022/01/28 10:48:55;;;;;;;;;;;;;;;29.42;16.13;100639.38;5056335;28;1295;-42
2022/01/28 10:51:21;;;;;;;;;;;;;;;28.91;16.56;100645.94;5062114;28;1394;-40
2022/01/28 10:54:05;;;;;;;;;;;;;;;28.57;16.79;100645.69;5060275;28;1525;-41
2022/01/28 10:56:31;;;;;;;;;;;;;;;28.73;16.73;100639.13;5055641;28;1343;-39
2022/01/28 10:58:57;;;;;;;;;;;;;;;28.34;17.06;100644.84;5039371;28;1964;-39
2022/01/28 11:01:24;;;;;;;;;;;;;;;28.27;17.42;100645.78;5058102;28;1618;-40
2022/01/28 11:03:49;;;;;;;;;;;;;;;28.24;17.48;100638.91;5054106;28;1573;-40
2022/01/28 11:06:16;;;;;;;;;;;;;;;28.26;17.22;100639.53;5053267;28;1502;-40
2022/01/28 11:08:41;;;;;;;;;;;;;;;28.10;17.97;100641.50;5037462;28;1649;-40
2022/01/28 11:11:06;;;;;;;;;;;;;;;28.23;17.63;100645.34;5037172;28;1376;-40
2022/01/28 11:13:32;;;;;;;;;;;;;;;28.24;17.63;100637.03;5057238;28;1496;-38
2022/01/28 11:15:58;;;;;;;;;;;;;;;28.23;17.72;100629.97;5036339;28;1267;-40
2022/01/28 11:18:23;;;;;;;;;;;;;;;28.18;17.72;100634.25;5054285;28;1949;-39
2022/01/28 11:20:53;;;;;;;;;;;;;;;28.01;17.84;100623.69;5041755;28;1513;-42
2022/01/28 11:23:23;;;;;;;;;;;;;;;27.99;18.13;100626.59;5020238;28;1566;-40
2022/01/28 11:25:57;;;;;;;;;;;;;;;28.08;17.91;100619.19;5026641;28;1384;-41
2022/01/28 11:28:36;;;;;;;;;;;;;;;28.16;17.71;100626.34;5048709;28;837;-42
2022/01/28 11:31:03;;;;;;;;;;;;;;;28.14;17.64;100619.47;5037658;28;1499;-39
2022/01/28 11:33:41;;;;;;;;;;;;;;;28.15;17.83;100624.69;5041165;28;1340;-42
2022/01/28 11:36:06;;;;;;;;;;;;;;;28.55;17.62;100618.81;5032565;28;1330;-41
2022/01/28 11:38:31;;;;;;;;;;;;;;;28.78;17.16;100620.44;5030407;28;1898;-41
2022/01/28 11:40:57;;;;;;;;;;;;;;;29.32;16.88;100614.53;5035528;28;1320;-41
2022/01/28 11:43:24;;;;;;;;;;;;;;;28.50;17.61;100615.84;5033136;28;1149;-41
2022/01/28 11:46:08;;;;;;;;;;;;;;;28.43;17.71;100629.31;5033619;28;1445;-41
2022/01/28 11:48:51;;;;;;;;;;;;;;;28.34;17.70;100628.63;5034505;28;1223;-41
2022/01/28 11:51:16;;;;;;;;;;;;;;;28.57;17.59;100614.06;5037292;28;1151;-42
2022/01/28 11:53:55;;;;;;;;;;;;;;;29.00;17.11;100614.13;5046698;28;754;-41
2022/01/28 11:56:21;;;;;;;;;;;;;;;28.81;17.21;100611.91;5033796;28;1046;-38
2022/01/28 11:59:05;;;;;;;;;;;;;;;28.47;17.29;100617.09;5035239;28;1914;-38
2022/01/28 12:01:39;;;;;;;;;;;;;;;28.35;17.36;100610.53;5034921;28;1265;-38
2022/01/28 12:04:34;;;;;;;;;;;;;;;28.31;17.18;100596.53;5038495;28;1387;-37
2022/01/28 12:07:03;;;;;;;;;;;;;;;28.47;17.15;100603.56;5037884;28;1218;-40
2022/01/28 12:09:28;;;;;;;;;;;;;;;28.66;16.89;100595.78;5029901;28;1339;-38
2022/01/28 12:11:54;;;;;;;;;;;;;;;28.92;16.74;100586.16;5043205;28;1359;-39
2022/01/28 12:14:19;;;;;;;;;;;;;;;30.15;15.82;100576.59;5044937;28;1438;-38
2022/01/28 12:16:48;;;;;;;;;;;;;;;29.17;16.48;100560.47;5038942;28;1475;-35
2022/01/28 12:19:19;;;;;;;;;;;;;;;29.02;16.95;100557.91;5030716;28;2370;-41
2022/01/28 12:22:03;;;;;;;;;;;;;;;29.17;16.52;100549.66;5036978;28;1190;-38
2022/01/28 12:24:29;;;;;;;;;;;;;;;29.26;16.61;100545.72;5039034;28;1527;-40
2022/01/28 12:26:55;;;;;;;;;;;;;;;29.55;16.22;100538.31;5038600;28;1479;-39
2022/01/28 12:29:27;;;;;;;;;;;;;;;30.64;15.42;100536.50;5038777;28;1253;-40
2022/01/28 12:31:56;;;;;;;;;;;;;;;29.36;16.36;100541.81;5014999;28;1420;-39
2022/01/28 12:34:21;;;;;;;;;;;;;;;29.35;16.25;100546.38;5039278;28;1538;-40
2022/01/28 12:36:48;;;;;;;;;;;;;;;29.34;16.25;100536.59;5019772;28;1267;-42
2022/01/28 12:41:55;;;;;;;;;;;;;;;29.40;16.37;100532.22;5039620;28;1194;-40
2022/01/28 12:44:20;;;;;;;;;;;;;;;29.54;16.14;100535.81;5037385;28;1271;-41
2022/01/28 12:46:49;;;;;;;;;;;;;;;29.78;16.05;100539.03;5037820;28;1388;-41
2022/01/28 12:49:14;;;;;;;;;;;;;;;30.63;15.43;100542.97;5038190;28;1236;-39
2022/01/28 12:51:40;;;;;;;;;;;;;;;30.94;14.97;100547.94;5020164;28;1223;-39
2022/01/28 12:54:05;;;;;;;;;;;;;;;31.96;13.82;100540.94;5033545;28;1554;-40
2022/01/28 12:56:31;;;;;;;;;;;;;;;32.31;13.98;100552.38;5031747;28;1467;-40
2022/01/28 12:58:57;;;;;;;;;;;;;;;30.87;15.26;100535.22;5025836;28;1910;-40
2022/01/28 13:01:22;;;;;;;;;;;;;;;30.64;15.37;100543.81;5038913;28;1313;-41
2022/01/28 13:04:01;;;;;;;;;;;;;;;30.45;15.80;100546.34;5039243;28;1240;-41
2022/01/28 13:08:58;;;;;;;;;;;;;;;30.30;15.73;100546.56;5035255;28;1315;-39
2022/01/28 13:11:25;;;;;;;;;;;;;;;30.18;15.74;100551.75;5036473;28;1417;-41
2022/01/28 13:13:51;;;;;;;;;;;;;;;30.18;15.85;100549.03;5031452;28;1534;-41
2022/01/28 13:16:27;;;;;;;;;;;;;;;30.15;15.78;100554.88;5036054;28;1422;-40
2022/01/28 13:18:59;;;;;;;;;;;;;;;30.04;16.06;100551.78;5034679;28;1905;-42
2022/01/28 13:21:24;;;;;;;;;;;;;;;30.19;15.77;100559.69;5056569;28;1240;-42
2022/01/28 13:24:02;;;;;;;;;;;;;;;30.77;15.29;100554.63;5056345;28;1200;-40
2022/01/28 13:26:28;;;;;;;;;;;;;;;30.86;15.18;100549.00;5057787;28;1292;-40
2022/01/28 13:29:09;;;;;;;;;;;;;;;31.73;14.54;100547.75;5056593;28;1176;-36
2022/01/28 13:31:34;;;;;;;;;;;;;;;32.15;14.17;100540.97;5057250;28;1434;-37
2022/01/28 13:34:02;;;;;;;;;;;;;;;31.99;14.01;100543.22;5057176;28;1344;-38
2022/01/28 13:36:27;;;;;;;;;;;;;;;32.08;13.91;100551.91;5055300;28;2499;-39
2022/01/28 13:38:52;;;;;;;;;;;;;;;30.49;15.18;100538.63;5038995;28;2697;-39
2022/01/28 13:41:18;;;;;;;;;;;;;;;30.03;15.63;100546.56;5056738;28;931;-38
2022/01/28 13:43:43;;;;;;;;;;;;;;;29.83;15.69;100547.34;5056029;28;1417;-38
2022/01/28 13:46:12;;;;;;;;;;;;;;;29.58;16.10;100545.19;5044176;28;2452;-41
2022/01/28 13:48:38;;;;;;;;;;;;;;;29.92;15.77;100545.28;5056876;28;1053;-43
2022/01/28 13:51:07;;;;;;;;;;;;;;;29.98;15.62;100543.63;5051676;28;1274;-42
2022/01/28 13:56:29;;;;;;;;;;;;;;;29.30;16.24;100538.88;5055090;28;1106;-41
2022/01/28 13:58:54;;;;;;;;;;;;;;;29.00;16.89;100533.75;5054651;28;1898;-41
2022/01/28 14:01:21;;;;;;;;;;;;;;;28.23;17.30;100529.88;5057501;28;1240;-39
2022/01/28 14:03:47;;;;;;;;;;;;;;;27.97;17.95;100539.47;5057548;28;1232;-41
2022/01/28 14:06:15;;;;;;;;;;;;;;;27.79;18.11;100537.22;5054580;28;1101;-39
2022/01/28 14:08:41;;;;;;;;;;;;;;;27.72;18.12;100539.00;5057615;28;1298;-40
2022/01/28 14:11:38;;;;;;;;;;;;;;;27.60;18.11;100538.63;5057069;28;1192;-41
2022/01/28 14:14:27;;;;;;;;;;;;;;;28.33;17.34;100542.25;5032142;28;2066;-38
2022/01/28 14:16:54;;;;;;;;;;;;;;;28.76;17.53;100548.59;5037385;28;1426;-39
2022/01/28 14:19:19;;;;;;;;;;;;;;;29.45;16.82;100551.41;5048212;28;1955;-39
2022/01/28 14:21:45;;;;;;;;;;;;;;;29.71;16.29;100552.56;5055690;28;1150;-40
2022/01/28 14:24:12;;;;;;;;;;;;;;;29.92;16.02;100562.41;5055790;28;1235;-41
2022/01/28 14:26:43;;;;;;;;;;;;;;;29.88;16.11;100565.72;5055482;28;1195;-39